sensor_id;sensor_type;location;lat;lon;timestamp;P1;durP1;ratioP1;P2;durP2;ratioP2
21546;SDS011;41275;51.912;4.388;2023-04-03T00:03:20;2.45;;;1.15;;
21546;SDS011;41275;51.912;4.388;2023-04-03T00:08:41;4.20;;;1.00;;
21546;SDS011;41275;51.912;4.388;2023-04-03T00:14:02;3.33;;;1.02;;
21546;SDS011;41275;51.912;4.388;2023-04-03T00:19:24;2.78;;;1.00;;
21546;SDS011;41275;51.912;4.388;2023-04-03T00:24:45;5.10;;;1.00;;
21546;SDS011;41275;51.912;4.388;2023-04-03T00:30:07;4.73;;;1.10;;
21546;SDS011;41275;51.912;4.388;2023-04-03T00:35:37;3.70;;;0.90;;
21546;SDS011;41275;51.912;4.388;2023-04-03T00:40:58;2.17;;;0.90;;
21546;SDS011;41275;51.912;4.388;2023-04-03T00:46:20;3.80;;;1.08;;
21546;SDS011;41275;51.912;4.388;2023-04-03T00:51:41;2.42;;;0.90;;
21546;SDS011;41275;51.912;4.388;2023-04-03T00:57:02;2.93;;;1.00;;
21546;SDS011;41275;51.912;4.388;2023-04-03T01:02:25;3.13;;;0.80;;
21546;SDS011;41275;51.912;4.388;2023-04-03T01:07:46;2.70;;;1.00;;
21546;SDS011;41275;51.912;4.388;2023-04-03T01:13:21;5.13;;;1.08;;
21546;SDS011;41275;51.912;4.388;2023-04-03T01:18:47;3.53;;;0.90;;
21546;SDS011;41275;51.912;4.388;2023-04-03T01:30:07;2.40;;;1.00;;
21546;SDS011;41275;51.912;4.388;2023-04-03T01:35:29;2.33;;;1.00;;
21546;SDS011;41275;51.912;4.388;2023-04-03T01:40:50;1.50;;;0.80;;
21546;SDS011;41275;51.912;4.388;2023-04-03T01:46:12;1.87;;;1.03;;
21546;SDS011;41275;51.912;4.388;2023-04-03T01:51:33;3.43;;;1.07;;
21546;SDS011;41275;51.912;4.388;2023-04-03T01:56:54;2.77;;;0.93;;
21546;SDS011;41275;51.912;4.388;2023-04-03T02:02:15;2.88;;;1.08;;
21546;SDS011;41275;51.912;4.388;2023-04-03T02:07:37;3.17;;;1.07;;
21546;SDS011;41275;51.912;4.388;2023-04-03T02:12:58;4.50;;;1.25;;
21546;SDS011;41275;51.912;4.388;2023-04-03T02:18:19;2.58;;;1.10;;
21546;SDS011;41275;51.912;4.388;2023-04-03T02:23:41;2.17;;;1.13;;
21546;SDS011;41275;51.912;4.388;2023-04-03T02:29:02;4.35;;;1.13;;
21546;SDS011;41275;51.912;4.388;2023-04-03T02:34:23;2.90;;;1.13;;
21546;SDS011;41275;51.912;4.388;2023-04-03T02:39:44;3.90;;;0.93;;
21546;SDS011;41275;51.912;4.388;2023-04-03T02:45:06;3.22;;;1.10;;
21546;SDS011;41275;51.912;4.388;2023-04-03T02:50:27;2.97;;;1.00;;
21546;SDS011;41275;51.912;4.388;2023-04-03T02:55:48;4.40;;;1.20;;
21546;SDS011;41275;51.912;4.388;2023-04-03T03:01:10;2.90;;;1.10;;
21546;SDS011;41275;51.912;4.388;2023-04-03T03:06:31;3.33;;;1.15;;
21546;SDS011;41275;51.912;4.388;2023-04-03T03:11:53;4.53;;;1.15;;
21546;SDS011;41275;51.912;4.388;2023-04-03T03:17:14;3.10;;;1.20;;
21546;SDS011;41275;51.912;4.388;2023-04-03T03:22:35;2.70;;;1.17;;
21546;SDS011;41275;51.912;4.388;2023-04-03T03:27:57;4.22;;;1.17;;
21546;SDS011;41275;51.912;4.388;2023-04-03T03:33:18;3.13;;;1.17;;
21546;SDS011;41275;51.912;4.388;2023-04-03T03:38:39;3.35;;;1.38;;
21546;SDS011;41275;51.912;4.388;2023-04-03T03:44:00;3.83;;;1.50;;
21546;SDS011;41275;51.912;4.388;2023-04-03T03:49:22;5.47;;;1.40;;
21546;SDS011;41275;51.912;4.388;2023-04-03T03:54:43;3.77;;;1.23;;
21546;SDS011;41275;51.912;4.388;2023-04-03T04:00:04;3.03;;;1.30;;
21546;SDS011;41275;51.912;4.388;2023-04-03T04:05:26;5.78;;;1.52;;
21546;SDS011;41275;51.912;4.388;2023-04-03T04:10:47;5.18;;;1.60;;
21546;SDS011;41275;51.912;4.388;2023-04-03T04:16:08;3.47;;;1.55;;
21546;SDS011;41275;51.912;4.388;2023-04-03T04:21:30;3.97;;;1.55;;
21546;SDS011;41275;51.912;4.388;2023-04-03T04:26:51;5.53;;;1.40;;
21546;SDS011;41275;51.912;4.388;2023-04-03T04:32:12;6.47;;;1.67;;
21546;SDS011;41275;51.912;4.388;2023-04-03T04:37:34;3.20;;;1.33;;
21546;SDS011;41275;51.912;4.388;2023-04-03T04:42:55;2.90;;;1.42;;
21546;SDS011;41275;51.912;4.388;2023-04-03T04:48:16;5.53;;;1.70;;
21546;SDS011;41275;51.912;4.388;2023-04-03T04:53:37;5.47;;;1.73;;
21546;SDS011;41275;51.912;4.388;2023-04-03T04:58:59;8.00;;;1.55;;
21546;SDS011;41275;51.912;4.388;2023-04-03T05:04:20;4.00;;;1.60;;
21546;SDS011;41275;51.912;4.388;2023-04-03T05:09:41;3.60;;;1.70;;
21546;SDS011;41275;51.912;4.388;2023-04-03T05:15:03;5.78;;;1.73;;
21546;SDS011;41275;51.912;4.388;2023-04-03T05:20:24;5.30;;;1.70;;
21546;SDS011;41275;51.912;4.388;2023-04-03T05:25:46;2.78;;;1.52;;
21546;SDS011;41275;51.912;4.388;2023-04-03T05:31:07;5.03;;;1.60;;
21546;SDS011;41275;51.912;4.388;2023-04-03T05:36:28;4.80;;;1.67;;
21546;SDS011;41275;51.912;4.388;2023-04-03T05:41:50;5.18;;;1.70;;
21546;SDS011;41275;51.912;4.388;2023-04-03T05:47:11;4.37;;;1.80;;
21546;SDS011;41275;51.912;4.388;2023-04-03T05:52:33;7.97;;;2.00;;
21546;SDS011;41275;51.912;4.388;2023-04-03T05:57:57;4.37;;;1.60;;
21546;SDS011;41275;51.912;4.388;2023-04-03T06:03:19;4.73;;;1.43;;
21546;SDS011;41275;51.912;4.388;2023-04-03T06:08:40;4.77;;;1.70;;
21546;SDS011;41275;51.912;4.388;2023-04-03T06:14:01;4.35;;;1.65;;
21546;SDS011;41275;51.912;4.388;2023-04-03T06:19:23;5.18;;;1.60;;
21546;SDS011;41275;51.912;4.388;2023-04-03T06:24:45;4.55;;;1.55;;
21546;SDS011;41275;51.912;4.388;2023-04-03T06:30:06;4.00;;;1.50;;
21546;SDS011;41275;51.912;4.388;2023-04-03T06:35:28;5.72;;;1.67;;
21546;SDS011;41275;51.912;4.388;2023-04-03T06:40:51;5.35;;;1.63;;
21546;SDS011;41275;51.912;4.388;2023-04-03T06:46:20;10.05;;;1.80;;
21546;SDS011;41275;51.912;4.388;2023-04-03T06:51:42;8.20;;;1.80;;
21546;SDS011;41275;51.912;4.388;2023-04-03T06:57:04;5.47;;;1.40;;
21546;SDS011;41275;51.912;4.388;2023-04-03T07:02:25;5.33;;;1.30;;
21546;SDS011;41275;51.912;4.388;2023-04-03T07:07:47;3.17;;;1.30;;
21546;SDS011;41275;51.912;4.388;2023-04-03T07:13:08;4.83;;;1.70;;
21546;SDS011;41275;51.912;4.388;2023-04-03T07:18:29;5.40;;;1.53;;
21546;SDS011;41275;51.912;4.388;2023-04-03T07:23:50;5.85;;;1.50;;
21546;SDS011;41275;51.912;4.388;2023-04-03T07:29:11;6.10;;;1.70;;
21546;SDS011;41275;51.912;4.388;2023-04-03T07:34:33;4.65;;;1.40;;
21546;SDS011;41275;51.912;4.388;2023-04-03T07:39:54;7.50;;;1.47;;
21546;SDS011;41275;51.912;4.388;2023-04-03T07:45:15;3.67;;;1.42;;
21546;SDS011;41275;51.912;4.388;2023-04-03T07:50:39;5.70;;;1.80;;
21546;SDS011;41275;51.912;4.388;2023-04-03T07:56:01;5.88;;;1.35;;
21546;SDS011;41275;51.912;4.388;2023-04-03T08:01:23;4.55;;;1.25;;
21546;SDS011;41275;51.912;4.388;2023-04-03T08:06:44;5.30;;;1.50;;
21546;SDS011;41275;51.912;4.388;2023-04-03T08:12:05;5.17;;;1.73;;
21546;SDS011;41275;51.912;4.388;2023-04-03T08:17:27;4.88;;;1.40;;
21546;SDS011;41275;51.912;4.388;2023-04-03T08:22:48;4.03;;;1.30;;
21546;SDS011;41275;51.912;4.388;2023-04-03T08:28:10;6.07;;;1.53;;
21546;SDS011;41275;51.912;4.388;2023-04-03T08:33:32;5.23;;;1.20;;
21546;SDS011;41275;51.912;4.388;2023-04-03T08:38:54;5.13;;;1.25;;
21546;SDS011;41275;51.912;4.388;2023-04-03T08:50:07;4.50;;;1.20;;
21546;SDS011;41275;51.912;4.388;2023-04-03T08:55:43;7.28;;;1.40;;
21546;SDS011;41275;51.912;4.388;2023-04-03T09:01:19;4.45;;;1.25;;
21546;SDS011;41275;51.912;4.388;2023-04-03T09:06:45;4.00;;;1.10;;
21546;SDS011;41275;51.912;4.388;2023-04-03T09:12:17;5.07;;;1.40;;
21546;SDS011;41275;51.912;4.388;2023-04-03T09:17:55;3.35;;;0.90;;
21546;SDS011;41275;51.912;4.388;2023-04-03T09:23:19;4.50;;;0.80;;
21546;SDS011;41275;51.912;4.388;2023-04-03T09:28:42;4.97;;;1.30;;
21546;SDS011;41275;51.912;4.388;2023-04-03T09:34:06;4.38;;;1.10;;
21546;SDS011;41275;51.912;4.388;2023-04-03T09:39:32;3.40;;;0.93;;
21546;SDS011;41275;51.912;4.388;2023-04-03T09:45:18;3.38;;;1.00;;
21546;SDS011;41275;51.912;4.388;2023-04-03T10:01:39;1.60;;;0.40;;
21546;SDS011;41275;51.912;4.388;2023-04-03T10:07:03;3.47;;;0.60;;
21546;SDS011;41275;51.912;4.388;2023-04-03T10:12:24;5.07;;;0.70;;
21546;SDS011;41275;51.912;4.388;2023-04-03T10:18:07;4.75;;;0.60;;
21546;SDS011;41275;51.912;4.388;2023-04-03T10:23:40;3.40;;;0.70;;
21546;SDS011;41275;51.912;4.388;2023-04-03T10:35:10;2.40;;;0.67;;
21546;SDS011;41275;51.912;4.388;2023-04-03T10:46:32;2.30;;;0.75;;
21546;SDS011;41275;51.912;4.388;2023-04-03T10:52:15;2.35;;;0.60;;
21546;SDS011;41275;51.912;4.388;2023-04-03T10:57:42;2.53;;;0.85;;
21546;SDS011;41275;51.912;4.388;2023-04-03T11:03:12;1.40;;;0.40;;
21546;SDS011;41275;51.912;4.388;2023-04-03T11:08:49;2.55;;;0.50;;
21546;SDS011;41275;51.912;4.388;2023-04-03T11:14:33;1.37;;;0.50;;
21546;SDS011;41275;51.912;4.388;2023-04-03T11:25:23;2.00;;;0.73;;
21546;SDS011;41275;51.912;4.388;2023-04-03T11:36:08;3.80;;;0.65;;
21546;SDS011;41275;51.912;4.388;2023-04-03T11:41:33;1.10;;;0.50;;
21546;SDS011;41275;51.912;4.388;2023-04-03T11:46:55;1.48;;;0.50;;
21546;SDS011;41275;51.912;4.388;2023-04-03T11:58:11;1.48;;;0.30;;
21546;SDS011;41275;51.912;4.388;2023-04-03T12:09:00;2.60;;;0.50;;
21546;SDS011;41275;51.912;4.388;2023-04-03T12:14:22;1.70;;;0.50;;
21546;SDS011;41275;51.912;4.388;2023-04-03T12:19:46;1.57;;;0.30;;
21546;SDS011;41275;51.912;4.388;2023-04-03T12:25:43;0.73;;;0.30;;
21546;SDS011;41275;51.912;4.388;2023-04-03T12:31:09;1.33;;;0.40;;
21546;SDS011;41275;51.912;4.388;2023-04-03T12:36:38;2.60;;;0.50;;
21546;SDS011;41275;51.912;4.388;2023-04-03T12:42:18;1.60;;;0.60;;
21546;SDS011;41275;51.912;4.388;2023-04-03T12:48:01;2.27;;;0.50;;
21546;SDS011;41275;51.912;4.388;2023-04-03T12:53:26;1.25;;;0.45;;
21546;SDS011;41275;51.912;4.388;2023-04-03T12:58:51;0.57;;;0.30;;
21546;SDS011;41275;51.912;4.388;2023-04-03T13:04:14;1.80;;;0.52;;
21546;SDS011;41275;51.912;4.388;2023-04-03T13:09:35;1.98;;;0.57;;
21546;SDS011;41275;51.912;4.388;2023-04-03T13:14:58;1.20;;;0.50;;
21546;SDS011;41275;51.912;4.388;2023-04-03T13:20:29;0.90;;;0.30;;
21546;SDS011;41275;51.912;4.388;2023-04-03T13:25:54;2.40;;;0.63;;
21546;SDS011;41275;51.912;4.388;2023-04-03T13:31:18;2.03;;;0.50;;
21546;SDS011;41275;51.912;4.388;2023-04-03T13:36:45;2.07;;;0.60;;
21546;SDS011;41275;51.912;4.388;2023-04-03T13:42:17;2.28;;;0.70;;
21546;SDS011;41275;51.912;4.388;2023-04-03T13:47:44;1.93;;;0.67;;
21546;SDS011;41275;51.912;4.388;2023-04-03T13:53:12;2.95;;;0.80;;
21546;SDS011;41275;51.912;4.388;2023-04-03T13:58:35;2.17;;;0.63;;
21546;SDS011;41275;51.912;4.388;2023-04-03T14:03:59;1.88;;;0.63;;
21546;SDS011;41275;51.912;4.388;2023-04-03T14:09:24;1.20;;;0.50;;
21546;SDS011;41275;51.912;4.388;2023-04-03T14:14:47;1.48;;;0.47;;
21546;SDS011;41275;51.912;4.388;2023-04-03T14:20:19;1.88;;;0.68;;
21546;SDS011;41275;51.912;4.388;2023-04-03T14:25:42;1.75;;;0.63;;
21546;SDS011;41275;51.912;4.388;2023-04-03T14:31:04;1.93;;;0.57;;
21546;SDS011;41275;51.912;4.388;2023-04-03T14:36:26;2.45;;;0.70;;
21546;SDS011;41275;51.912;4.388;2023-04-03T14:41:48;2.65;;;0.90;;
21546;SDS011;41275;51.912;4.388;2023-04-03T14:47:10;2.30;;;0.75;;
21546;SDS011;41275;51.912;4.388;2023-04-03T14:52:34;2.40;;;0.70;;
21546;SDS011;41275;51.912;4.388;2023-04-03T14:57:56;1.80;;;0.80;;
21546;SDS011;41275;51.912;4.388;2023-04-03T15:03:18;2.80;;;0.80;;
21546;SDS011;41275;51.912;4.388;2023-04-03T15:08:41;4.13;;;1.10;;
21546;SDS011;41275;51.912;4.388;2023-04-03T15:14:04;2.70;;;0.90;;
21546;SDS011;41275;51.912;4.388;2023-04-03T15:19:25;2.60;;;0.88;;
21546;SDS011;41275;51.912;4.388;2023-04-03T15:24:46;2.83;;;0.63;;
21546;SDS011;41275;51.912;4.388;2023-04-03T15:30:10;2.57;;;0.63;;
21546;SDS011;41275;51.912;4.388;2023-04-03T15:35:34;2.03;;;0.80;;
21546;SDS011;41275;51.912;4.388;2023-04-03T15:40:55;2.33;;;0.80;;
21546;SDS011;41275;51.912;4.388;2023-04-03T15:46:17;2.72;;;0.80;;
21546;SDS011;41275;51.912;4.388;2023-04-03T15:51:38;2.53;;;0.83;;
21546;SDS011;41275;51.912;4.388;2023-04-03T15:56:59;3.40;;;1.00;;
21546;SDS011;41275;51.912;4.388;2023-04-03T16:02:20;1.98;;;0.90;;
21546;SDS011;41275;51.912;4.388;2023-04-03T16:07:42;2.45;;;1.10;;
21546;SDS011;41275;51.912;4.388;2023-04-03T16:13:03;5.25;;;0.95;;
21546;SDS011;41275;51.912;4.388;2023-04-03T16:18:25;1.65;;;0.80;;
21546;SDS011;41275;51.912;4.388;2023-04-03T16:23:47;2.22;;;0.90;;
21546;SDS011;41275;51.912;4.388;2023-04-03T16:29:08;2.13;;;1.00;;
21546;SDS011;41275;51.912;4.388;2023-04-03T16:34:29;2.75;;;1.00;;
21546;SDS011;41275;51.912;4.388;2023-04-03T16:39:54;2.70;;;0.98;;
21546;SDS011;41275;51.912;4.388;2023-04-03T16:45:15;4.25;;;1.10;;
21546;SDS011;41275;51.912;4.388;2023-04-03T16:50:36;3.28;;;1.00;;
21546;SDS011;41275;51.912;4.388;2023-04-03T16:55:58;3.90;;;1.10;;
21546;SDS011;41275;51.912;4.388;2023-04-03T17:01:20;3.72;;;1.10;;
21546;SDS011;41275;51.912;4.388;2023-04-03T17:06:42;3.60;;;1.00;;
21546;SDS011;41275;51.912;4.388;2023-04-03T17:12:03;2.90;;;1.10;;
21546;SDS011;41275;51.912;4.388;2023-04-03T17:17:25;2.92;;;0.90;;
21546;SDS011;41275;51.912;4.388;2023-04-03T17:22:46;3.65;;;1.17;;
21546;SDS011;41275;51.912;4.388;2023-04-03T17:28:08;4.18;;;1.40;;
21546;SDS011;41275;51.912;4.388;2023-04-03T17:33:29;3.30;;;1.15;;
21546;SDS011;41275;51.912;4.388;2023-04-03T17:38:50;3.90;;;1.00;;
21546;SDS011;41275;51.912;4.388;2023-04-03T17:44:12;4.07;;;1.23;;
21546;SDS011;41275;51.912;4.388;2023-04-03T17:49:33;5.43;;;1.10;;
21546;SDS011;41275;51.912;4.388;2023-04-03T17:54:54;3.17;;;1.10;;
21546;SDS011;41275;51.912;4.388;2023-04-03T18:00:16;4.30;;;1.40;;
21546;SDS011;41275;51.912;4.388;2023-04-03T18:05:37;4.40;;;1.37;;
21546;SDS011;41275;51.912;4.388;2023-04-03T18:10:59;4.97;;;1.25;;
21546;SDS011;41275;51.912;4.388;2023-04-03T18:16:20;5.00;;;1.13;;
21546;SDS011;41275;51.912;4.388;2023-04-03T18:21:41;4.90;;;1.20;;
21546;SDS011;41275;51.912;4.388;2023-04-03T18:27:06;5.20;;;1.77;;
21546;SDS011;41275;51.912;4.388;2023-04-03T18:32:31;4.80;;;1.25;;
21546;SDS011;41275;51.912;4.388;2023-04-03T18:37:52;6.70;;;1.50;;
21546;SDS011;41275;51.912;4.388;2023-04-03T18:43:13;3.85;;;1.33;;
21546;SDS011;41275;51.912;4.388;2023-04-03T18:48:35;5.80;;;1.77;;
21546;SDS011;41275;51.912;4.388;2023-04-03T18:54:00;7.07;;;1.92;;
21546;SDS011;41275;51.912;4.388;2023-04-03T18:59:22;4.43;;;1.55;;
21546;SDS011;41275;51.912;4.388;2023-04-03T19:04:43;6.53;;;2.08;;
21546;SDS011;41275;51.912;4.388;2023-04-03T19:10:05;9.07;;;2.90;;
21546;SDS011;41275;51.912;4.388;2023-04-03T19:15:27;7.60;;;3.00;;
21546;SDS011;41275;51.912;4.388;2023-04-03T19:20:48;7.13;;;1.70;;
21546;SDS011;41275;51.912;4.388;2023-04-03T19:26:09;7.40;;;1.70;;
21546;SDS011;41275;51.912;4.388;2023-04-03T19:31:32;7.53;;;1.80;;
21546;SDS011;41275;51.912;4.388;2023-04-03T19:36:56;5.32;;;1.95;;
21546;SDS011;41275;51.912;4.388;2023-04-03T19:42:18;5.68;;;1.60;;
21546;SDS011;41275;51.912;4.388;2023-04-03T19:47:40;6.17;;;1.80;;
21546;SDS011;41275;51.912;4.388;2023-04-03T19:53:01;6.07;;;1.50;;
21546;SDS011;41275;51.912;4.388;2023-04-03T19:58:23;4.13;;;1.58;;
21546;SDS011;41275;51.912;4.388;2023-04-03T20:03:47;5.60;;;1.50;;
21546;SDS011;41275;51.912;4.388;2023-04-03T20:09:08;7.50;;;1.90;;
21546;SDS011;41275;51.912;4.388;2023-04-03T20:14:30;4.78;;;1.52;;
21546;SDS011;41275;51.912;4.388;2023-04-03T20:19:51;6.22;;;1.88;;
21546;SDS011;41275;51.912;4.388;2023-04-03T20:25:13;6.90;;;1.63;;
21546;SDS011;41275;51.912;4.388;2023-04-03T20:30:34;5.43;;;1.40;;
21546;SDS011;41275;51.912;4.388;2023-04-03T20:35:56;4.00;;;1.50;;
21546;SDS011;41275;51.912;4.388;2023-04-03T20:41:18;4.53;;;1.70;;
21546;SDS011;41275;51.912;4.388;2023-04-03T20:46:39;3.85;;;1.50;;
21546;SDS011;41275;51.912;4.388;2023-04-03T20:52:00;5.07;;;1.85;;
21546;SDS011;41275;51.912;4.388;2023-04-03T20:57:22;9.13;;;1.70;;
21546;SDS011;41275;51.912;4.388;2023-04-03T21:02:43;6.50;;;1.57;;
21546;SDS011;41275;51.912;4.388;2023-04-03T21:20:04;3.45;;;1.20;;
21546;SDS011;41275;51.912;4.388;2023-04-03T21:25:27;7.00;;;1.60;;
21546;SDS011;41275;51.912;4.388;2023-04-03T21:30:49;3.72;;;1.20;;
21546;SDS011;41275;51.912;4.388;2023-04-03T21:36:10;5.57;;;1.20;;
21546;SDS011;41275;51.912;4.388;2023-04-03T21:41:33;3.20;;;1.20;;
21546;SDS011;41275;51.912;4.388;2023-04-03T21:46:55;4.47;;;1.40;;
21546;SDS011;41275;51.912;4.388;2023-04-03T21:52:16;5.45;;;1.35;;
21546;SDS011;41275;51.912;4.388;2023-04-03T21:57:37;3.23;;;1.10;;
21546;SDS011;41275;51.912;4.388;2023-04-03T22:02:58;3.90;;;1.17;;
21546;SDS011;41275;51.912;4.388;2023-04-03T22:08:19;3.92;;;1.17;;
21546;SDS011;41275;51.912;4.388;2023-04-03T22:13:41;6.35;;;1.35;;
21546;SDS011;41275;51.912;4.388;2023-04-03T22:19:03;3.70;;;1.10;;
21546;SDS011;41275;51.912;4.388;2023-04-03T22:24:24;8.13;;;1.35;;
21546;SDS011;41275;51.912;4.388;2023-04-03T22:29:45;4.27;;;1.20;;
21546;SDS011;41275;51.912;4.388;2023-04-03T22:35:07;3.13;;;1.00;;
21546;SDS011;41275;51.912;4.388;2023-04-03T22:40:28;3.07;;;1.10;;
21546;SDS011;41275;51.912;4.388;2023-04-03T22:45:49;3.90;;;1.20;;
21546;SDS011;41275;51.912;4.388;2023-04-03T22:51:11;4.82;;;1.20;;
21546;SDS011;41275;51.912;4.388;2023-04-03T22:56:32;2.00;;;0.93;;
21546;SDS011;41275;51.912;4.388;2023-04-03T23:01:54;3.97;;;1.27;;
21546;SDS011;41275;51.912;4.388;2023-04-03T23:07:15;4.53;;;1.10;;
21546;SDS011;41275;51.912;4.388;2023-04-03T23:12:37;2.22;;;1.00;;
21546;SDS011;41275;51.912;4.388;2023-04-03T23:17:58;3.43;;;1.53;;
21546;SDS011;41275;51.912;4.388;2023-04-03T23:23:20;3.55;;;1.20;;
21546;SDS011;41275;51.912;4.388;2023-04-03T23:28:42;5.80;;;1.58;;
21546;SDS011;41275;51.912;4.388;2023-04-03T23:34:03;5.00;;;1.20;;
21546;SDS011;41275;51.912;4.388;2023-04-03T23:39:24;3.63;;;1.30;;
21546;SDS011;41275;51.912;4.388;2023-04-03T23:44:46;4.88;;;1.15;;
21546;SDS011;41275;51.912;4.388;2023-04-03T23:50:07;4.73;;;1.17;;
21546;SDS011;41275;51.912;4.388;2023-04-03T23:55:29;4.03;;;1.45;;
